createdAt,value
2019-02-27T01:45:59.958Z,102930.02
2019-02-27T01:49:24.029Z,102923.80
2019-02-27T01:52:28.078Z,102927.67
2019-02-27T01:55:32.142Z,102930.30
2019-02-27T01:58:36.248Z,102930.36
2019-02-27T02:01:40.338Z,102920.73
2019-02-27T02:04:44.548Z,102920.34
2019-02-27T02:21:11.560Z,102903.62
2019-02-27T02:24:38.302Z,102902.70
2019-02-27T02:31:42.517Z,102890.28
2019-02-27T02:34:59.789Z,102879.39
2019-02-27T02:41:58.947Z,102874.59
2019-02-27T02:45:35.752Z,102867.98
2019-02-27T02:48:52.305Z,102855.48
2019-02-27T02:52:10.201Z,102854.02
2019-02-27T02:55:47.484Z,102848.87
2019-02-27T02:59:26.936Z,102843.72
2019-02-27T03:02:38.530Z,102835.22
2019-02-27T03:06:23.645Z,102836.27
2019-02-27T03:09:41.885Z,102834.73
2019-02-27T03:13:05.780Z,102827.17
2019-02-27T03:16:44.029Z,102828.80
2019-02-27T03:20:16.531Z,102823.14
2019-02-27T03:24:18.710Z,102824.88
2019-02-27T03:34:48.351Z,102801.39
2019-02-27T03:38:06.140Z,102794.93
2019-02-27T03:41:40.441Z,102787.28
2019-02-27T03:45:19.412Z,102788.52
2019-02-27T03:49:03.042Z,102784.67
2019-02-27T03:52:56.225Z,102784.11
2019-02-27T04:27:55.232Z,102769.59
2019-02-27T04:30:55.306Z,102770.38
2019-02-27T04:34:00.382Z,102766.14
2019-02-27T04:37:05.165Z,102760.23
2019-02-27T05:17:25.567Z,102733.94
2019-02-27T05:42:48.877Z,102709.02
2019-02-27T05:46:02.735Z,102712.10
2019-02-27T05:49:09.219Z,102710.67
2019-02-27T05:52:37.115Z,102708.06
2019-02-27T05:56:21.496Z,102705.05
2019-02-27T05:59:29.394Z,102705.09
2019-02-27T06:02:34.727Z,102712.10
2019-02-27T06:05:49.859Z,102706.05
2019-02-27T06:08:55.836Z,102707.36
2019-02-27T06:47:49.002Z,102687.16
2019-02-27T06:50:53.157Z,102690.05
2019-02-27T06:53:57.272Z,102676.75
2019-02-27T06:57:01.337Z,102671.61
2019-02-27T07:03:15.802Z,102668.08
2019-02-27T07:06:21.577Z,102663.20
2019-02-27T07:09:25.702Z,102666.84
2019-02-27T07:12:29.765Z,102662.45
2019-02-27T07:15:33.835Z,102658.04
2019-02-27T07:18:41.434Z,102656.16
2019-02-27T07:21:44.026Z,102655.62
2019-02-27T07:24:48.161Z,102651.53
2019-02-27T07:34:46.733Z,102644.67
2019-02-27T08:32:35.101Z,102597.47
2019-02-27T08:35:39.127Z,102600.78
2019-02-27T08:38:42.977Z,102592.03
2019-02-27T08:41:46.781Z,102596.92
2019-02-27T08:44:50.648Z,102588.83
2019-02-27T08:47:55.762Z,102579.09
2019-02-27T08:50:59.675Z,102581.23
2019-02-27T08:54:03.619Z,102572.53
2019-02-27T08:57:07.449Z,102572.01
2019-02-27T09:00:14.931Z,102567.62
2019-02-27T09:03:20.567Z,102560.85
2019-02-27T09:06:27.300Z,102557.28
2019-02-27T09:09:29.773Z,102550.44
2019-02-27T09:12:33.622Z,102546.38
2019-02-27T09:15:37.431Z,102546.60
2019-02-27T09:18:41.241Z,102541.67
2019-02-27T09:21:45.093Z,102538.36
2019-02-27T09:24:48.886Z,102529.16
2019-02-27T09:27:52.728Z,102524.84
2019-02-27T09:30:56.638Z,102519.89
2019-02-27T09:34:00.539Z,102512.61
2019-02-27T09:37:04.374Z,102513.80
2019-02-27T09:40:09.940Z,102506.98
2019-02-27T09:43:13.769Z,102508.81
2019-02-27T09:46:19.598Z,102500.95
2019-02-27T09:49:23.204Z,102499.28
2019-02-27T09:52:27.857Z,102496.31
2019-02-27T09:55:32.642Z,102489.30
2019-02-27T09:58:36.486Z,102488.91
2019-02-27T10:01:40.479Z,102496.08
2019-02-27T10:04:44.373Z,102495.63
2019-02-27T10:07:48.423Z,102484.13
2019-02-27T10:10:53.743Z,102481.03
2019-02-27T10:13:57.556Z,102482.81
2019-02-27T10:17:01.460Z,102474.84
2019-02-27T10:20:06.109Z,102475.28
2019-02-27T10:23:09.930Z,102468.21
2019-02-27T10:26:13.771Z,102457.56
2019-02-27T10:29:18.996Z,102451.37
2019-02-27T10:32:22.964Z,102447.80
2019-02-27T10:35:29.431Z,102456.13
2019-02-27T10:38:32.481Z,102453.90
2019-02-27T10:41:36.371Z,102437.45
2019-02-27T10:44:40.194Z,102434.75
2019-02-27T10:47:44.371Z,102418.78
2019-02-27T10:50:48.186Z,102419.50
2019-02-27T10:53:52.096Z,102421.53
2019-02-27T10:56:56.561Z,102399.31
2019-02-27T11:00:00.933Z,102398.38
2019-02-27T11:03:04.902Z,102392.42
2019-02-27T11:06:08.731Z,102390.27
2019-02-27T11:09:24.222Z,102390.52
2019-02-27T11:12:29.434Z,102388.25
2019-02-27T11:15:33.916Z,102393.14
2019-02-27T11:18:37.743Z,102391.27
2019-02-27T11:21:41.568Z,102390.88
2019-02-27T11:24:49.258Z,102388.83
2019-02-27T11:27:51.052Z,102386.13
2019-02-27T11:30:54.897Z,102381.12
2019-02-27T11:33:58.725Z,102375.70
2019-02-27T11:37:04.320Z,102375.70
2019-02-27T11:40:10.005Z,102370.27
2019-02-27T11:43:13.908Z,102358.42
2019-02-27T11:46:17.745Z,102346.42
2019-02-27T11:49:21.571Z,102343.13
2019-02-27T11:52:28.618Z,102341.84
2019-02-27T11:55:31.119Z,102345.70
2019-02-27T11:58:35.243Z,102338.50
2019-02-27T12:01:40.684Z,102337.61
2019-02-27T12:04:44.673Z,102333.59
2019-02-27T12:07:51.284Z,102321.38
2019-02-27T12:10:54.269Z,102315.03
2019-02-27T12:13:58.222Z,102304.40
2019-02-27T12:17:02.105Z,102294.70
2019-02-27T12:20:06.556Z,102281.61
2019-02-27T12:23:10.836Z,102274.67
2019-02-27T12:26:14.708Z,102256.69
2019-02-27T12:29:18.661Z,102257.05
2019-02-27T12:32:22.615Z,102259.28
2019-02-27T12:35:28.199Z,102251.64
2019-02-27T12:38:32.017Z,102249.34
2019-02-27T12:41:35.832Z,102238.80
2019-02-27T12:44:39.723Z,102239.86
2019-02-27T12:47:43.515Z,102226.70
2019-02-27T12:50:47.407Z,102217.85
2019-02-27T12:53:54.315Z,102216.81
2019-02-27T12:56:56.860Z,102214.94
2019-02-27T13:00:00.749Z,102206.92
2019-02-27T13:03:08.395Z,102207.39
2019-02-27T13:06:10.558Z,102193.90
2019-02-27T13:09:14.502Z,102186.57
2019-02-27T13:12:18.330Z,102184.64
2019-02-27T13:15:23.008Z,102179.72
2019-02-27T13:18:31.571Z,102170.87
2019-02-27T13:21:32.480Z,102176.92
2019-02-27T13:24:36.325Z,102163.44
2019-02-27T13:27:43.272Z,102156.41
2019-02-27T13:30:45.911Z,102156.80
2019-02-27T13:33:49.750Z,102154.23
2019-02-27T13:36:53.551Z,102151.88
2019-02-27T13:40:00.400Z,102139.80
2019-02-27T13:43:03.033Z,102138.48
2019-02-27T13:46:06.927Z,102122.02
2019-02-27T13:49:11.327Z,102116.12
2019-02-27T13:52:16.366Z,102109.01
2019-02-27T13:55:20.372Z,102091.81
2019-02-27T13:58:24.164Z,102088.09
2019-02-27T14:01:28.721Z,102080.70
2019-02-27T14:04:33.111Z,102076.77
2019-02-27T14:07:37.051Z,102080.81
2019-02-27T14:10:41.054Z,102078.07
2019-02-27T14:13:45.037Z,102067.98
2019-02-27T14:16:49.358Z,102057.31
2019-02-27T14:19:55.265Z,102053.16
2019-02-27T14:22:58.866Z,102055.41
2019-02-27T14:26:05.626Z,102042.83
2019-02-27T14:29:08.473Z,102038.94
2019-02-27T14:32:14.473Z,102036.28
2019-02-27T14:35:18.066Z,102035.25
2019-02-27T14:38:22.908Z,102032.31
2019-02-27T14:41:26.750Z,102025.49
2019-02-27T14:44:31.491Z,102031.38
2019-02-27T14:47:35.845Z,102027.94
2019-02-27T14:50:39.810Z,102021.97
2019-02-27T14:53:43.754Z,102021.27
2019-02-27T14:56:49.434Z,102013.33
2019-02-27T14:59:53.320Z,102009.13
2019-02-27T15:02:57.378Z,101999.08
2019-02-27T15:06:01.280Z,101988.43
2019-02-27T15:09:06.721Z,101989.22
2019-02-27T15:12:10.638Z,101985.27
2019-02-27T15:15:17.155Z,101981.77
2019-02-27T15:18:22.454Z,101972.23
2019-02-27T15:21:27.387Z,101979.75
2019-02-27T15:24:31.982Z,101971.06
2019-02-27T15:27:36.810Z,101959.63
2019-02-27T15:30:40.751Z,101958.82
2019-02-27T15:33:44.627Z,101951.87
2019-02-27T15:36:48.554Z,101953.45
2019-02-27T15:39:55.016Z,101948.34
2019-02-27T15:42:57.991Z,101939.42
2019-02-27T15:46:01.817Z,101931.98
2019-02-27T15:49:05.775Z,101919.02
2019-02-27T15:52:09.705Z,101916.34
2019-02-27T15:55:13.801Z,101907.67
2019-02-27T15:58:17.646Z,101907.00
2019-02-27T16:01:24.741Z,101901.34
2019-02-27T16:04:27.054Z,101908.26
2019-02-27T16:07:30.939Z,101905.00
2019-02-27T16:10:34.770Z,101903.45
2019-02-27T16:13:38.818Z,101899.77
2019-02-27T16:16:42.598Z,101899.50
2019-02-27T16:19:46.450Z,101891.89
2019-02-27T16:22:50.324Z,101884.94
2019-02-27T16:25:56.374Z,101876.58
2019-02-27T16:28:59.837Z,101868.09
2019-02-27T16:32:03.715Z,101865.59
2019-02-27T16:35:08.188Z,101850.30
2019-02-27T16:38:13.192Z,101844.44
2019-02-27T16:41:17.193Z,101839.17
2019-02-27T16:44:22.026Z,101832.47
2019-02-27T16:47:26.555Z,101828.27
2019-02-27T16:50:30.575Z,101820.43
2019-02-27T16:53:34.378Z,101818.75
2019-02-27T16:56:38.229Z,101814.45
2019-02-27T16:59:42.250Z,101817.66
2019-02-27T17:02:47.612Z,101806.84
2019-02-27T17:05:51.460Z,101801.61
2019-02-27T17:08:55.353Z,101809.09
2019-02-27T17:11:59.210Z,101808.73
2019-02-27T17:15:03.032Z,101797.84
2019-02-27T17:18:06.904Z,101795.64
2019-02-27T17:21:10.720Z,101793.94
2019-02-27T17:24:14.543Z,101793.15
2019-02-27T17:27:18.521Z,101779.48
2019-02-27T17:30:24.535Z,101782.53
2019-02-27T17:33:28.587Z,101783.48
2019-02-27T17:36:32.658Z,101783.47
2019-02-27T17:39:36.481Z,101782.09
2019-02-27T17:42:40.281Z,101769.70
2019-02-27T17:45:46.775Z,101767.08
2019-02-27T17:48:49.694Z,101763.22
2019-02-27T17:51:53.542Z,101767.69
2019-02-27T17:54:57.370Z,101758.80
2019-02-27T17:58:01.158Z,101761.16
2019-02-27T18:01:06.125Z,101755.52
2019-02-27T18:04:14.220Z,101740.14
2019-02-27T18:07:15.576Z,101731.81
2019-02-27T18:10:19.388Z,101739.28
2019-02-27T18:13:23.214Z,101737.11
2019-02-27T18:16:27.423Z,101731.44
2019-02-27T18:19:31.749Z,101721.35
2019-02-27T18:22:35.743Z,101723.09
2019-02-27T18:25:42.184Z,101714.30
2019-02-27T18:28:45.226Z,101713.90
2019-02-27T18:31:49.081Z,101704.66
2019-02-27T18:34:54.703Z,101700.27
2019-02-27T18:37:58.519Z,101698.52
2019-02-27T18:41:02.342Z,101697.21
2019-02-27T18:44:08.151Z,101695.02
2019-02-27T18:47:11.713Z,101695.91
2019-02-27T18:50:15.678Z,101687.08
2019-02-27T18:53:19.584Z,101690.63
2019-02-27T18:56:23.501Z,101678.72
2019-02-27T18:59:29.578Z,101679.61
2019-02-27T19:02:33.076Z,101674.75
2019-02-27T19:05:38.223Z,101667.72
2019-02-27T19:08:42.606Z,101671.20
2019-02-27T19:11:47.397Z,101672.99
2019-02-27T19:14:52.243Z,101660.67
2019-02-27T19:17:56.209Z,101648.33
2019-02-27T19:21:00.233Z,101640.39
2019-02-27T19:24:04.204Z,101636.86
2019-02-27T19:27:08.407Z,101636.86
2019-02-27T19:30:14.021Z,101627.17
2019-02-27T19:33:18.106Z,101612.23
2019-02-27T19:36:21.986Z,101610.43
2019-02-27T19:39:25.913Z,101601.66
2019-02-27T19:42:29.816Z,101596.34
2019-02-27T19:45:35.910Z,101589.30
2019-02-27T19:48:39.314Z,101586.19
2019-02-27T19:51:45.027Z,101582.19
2019-02-27T19:54:51.679Z,101569.88
2019-02-27T19:57:54.813Z,101566.36
2019-02-27T20:00:58.733Z,101557.94
2019-02-27T20:04:02.595Z,101555.70
2019-02-27T20:07:06.635Z,101554.79
2019-02-27T20:10:11.391Z,101549.95
2019-02-27T20:13:15.382Z,101549.05
2019-02-27T20:16:20.500Z,101542.44
2019-02-27T20:19:28.280Z,101536.28
2019-02-27T20:22:30.580Z,101532.79
2019-02-27T20:25:34.555Z,101523.13
2019-02-27T20:28:38.383Z,101525.75
2019-02-27T20:31:42.347Z,101517.84
2019-02-27T20:34:46.638Z,101513.86
2019-02-27T20:37:50.653Z,101509.44
2019-02-27T20:40:54.928Z,101506.36
2019-02-27T20:44:00.317Z,101501.95
2019-02-27T20:47:04.520Z,101500.63
2019-02-27T20:50:11.497Z,101486.59
2019-02-27T20:53:15.369Z,101485.72
2019-02-27T20:56:19.173Z,101476.06
2019-02-27T20:59:26.030Z,101469.48
2019-02-27T21:02:28.553Z,101461.16
2019-02-27T21:05:32.751Z,101457.70
2019-02-27T21:08:36.835Z,101453.78
2019-02-27T21:11:40.644Z,101439.33
2019-02-27T21:14:46.672Z,101434.05
2019-02-27T21:17:50.324Z,101436.25
2019-02-27T21:20:54.651Z,101429.23
2019-02-27T21:23:58.585Z,101434.94
2019-02-27T21:27:02.815Z,101436.75
2019-02-27T21:30:10.602Z,101434.53
2019-02-27T21:33:14.403Z,101421.31
2019-02-27T21:36:18.243Z,101422.59
2019-02-27T21:39:22.509Z,101421.30
2019-02-27T21:42:27.814Z,101423.91
2019-02-27T21:45:31.686Z,101421.23
2019-02-27T21:48:35.714Z,101415.10
2019-02-27T21:51:39.616Z,101430.06
2019-02-27T21:54:43.847Z,101412.53
2019-02-27T21:57:48.005Z,101417.02
2019-02-27T22:00:54.735Z,101407.41
2019-02-27T22:03:58.702Z,101397.79
2019-02-27T22:07:02.822Z,101403.95
2019-02-27T22:10:08.356Z,101390.77
2019-02-27T22:13:12.473Z,101400.88
2019-02-27T22:16:16.519Z,101388.13
2019-02-27T22:19:20.554Z,101380.66
2019-02-27T22:22:24.697Z,101380.66
2019-02-27T22:25:31.028Z,101365.28
2019-02-27T22:28:34.402Z,101363.51
2019-02-27T22:31:40.589Z,101362.64
2019-02-27T22:34:43.781Z,101350.38
2019-02-27T22:37:50.963Z,101353.89
2019-02-27T22:40:53.431Z,101344.17
2019-02-27T22:43:57.232Z,101344.62
2019-02-27T22:47:01.065Z,101339.30
2019-02-27T22:50:06.932Z,101335.35
2019-02-27T22:53:10.843Z,101334.49
2019-02-27T22:56:16.787Z,101332.67
2019-02-27T22:59:20.292Z,101330.94
2019-02-27T23:02:24.850Z,101327.88
2019-02-27T23:05:28.773Z,101332.21
2019-02-27T23:08:32.768Z,101315.06
2019-02-27T23:11:37.452Z,101312.84
2019-02-27T23:14:42.755Z,101311.10
2019-02-27T23:17:46.594Z,101306.70
2019-02-27T23:20:52.442Z,101306.72
2019-02-27T23:23:56.286Z,101300.58
2019-02-27T23:27:00.205Z,101297.46
2019-02-27T23:30:05.420Z,101289.56
2019-02-27T23:33:09.425Z,101275.94
2019-02-27T23:36:13.345Z,101273.27
2019-02-27T23:39:17.345Z,101263.19
2019-02-27T23:42:21.233Z,101250.53
2019-02-27T23:45:25.392Z,101246.51
2019-02-27T23:48:29.126Z,101248.28
2019-02-27T23:51:33.668Z,101244.78
2019-02-27T23:54:38.212Z,101236.87
